sensor_id;sensor_type;location;lat;lon;timestamp;P1;durP1;ratioP1;P2;durP2;ratioP2
50066;SDS011;35952;52.524;13.340;2024-03-02T00:00:18;56.87;;;38.37;;
50066;SDS011;35952;52.524;13.340;2024-03-02T00:02:46;47.80;;;33.60;;
50066;SDS011;35952;52.524;13.340;2024-03-02T00:05:15;60.23;;;38.17;;
50066;SDS011;35952;52.524;13.340;2024-03-02T00:07:45;56.43;;;37.30;;
50066;SDS011;35952;52.524;13.340;2024-03-02T00:10:19;59.00;;;37.17;;
50066;SDS011;35952;52.524;13.340;2024-03-02T00:12:48;58.10;;;36.17;;
50066;SDS011;35952;52.524;13.340;2024-03-02T00:18:07;53.13;;;35.23;;
50066;SDS011;35952;52.524;13.340;2024-03-02T00:20:36;56.80;;;37.80;;
50066;SDS011;35952;52.524;13.340;2024-03-02T00:23:06;53.70;;;37.17;;
50066;SDS011;35952;52.524;13.340;2024-03-02T00:25:54;64.27;;;37.13;;
50066;SDS011;35952;52.524;13.340;2024-03-02T00:28:20;65.60;;;40.50;;
50066;SDS011;35952;52.524;13.340;2024-03-02T00:30:57;52.33;;;35.53;;
50066;SDS011;35952;52.524;13.340;2024-03-02T00:33:41;61.97;;;38.23;;
50066;SDS011;35952;52.524;13.340;2024-03-02T00:36:26;58.57;;;38.83;;
50066;SDS011;35952;52.524;13.340;2024-03-02T00:38:52;57.73;;;37.83;;
50066;SDS011;35952;52.524;13.340;2024-03-02T00:41:23;53.90;;;38.63;;
50066;SDS011;35952;52.524;13.340;2024-03-02T00:44:02;55.00;;;37.97;;
50066;SDS011;35952;52.524;13.340;2024-03-02T00:46:29;58.23;;;38.07;;
50066;SDS011;35952;52.524;13.340;2024-03-02T00:49:00;56.53;;;39.23;;
50066;SDS011;35952;52.524;13.340;2024-03-02T00:51:29;60.00;;;38.97;;
50066;SDS011;35952;52.524;13.340;2024-03-02T00:53:57;73.67;;;42.27;;
50066;SDS011;35952;52.524;13.340;2024-03-02T00:56:26;58.20;;;39.07;;
50066;SDS011;35952;52.524;13.340;2024-03-02T00:58:52;59.60;;;38.13;;
50066;SDS011;35952;52.524;13.340;2024-03-02T01:01:18;59.97;;;39.43;;
50066;SDS011;35952;52.524;13.340;2024-03-02T01:03:47;70.30;;;38.27;;
50066;SDS011;35952;52.524;13.340;2024-03-02T01:06:13;61.03;;;40.87;;
50066;SDS011;35952;52.524;13.340;2024-03-02T01:08:40;57.80;;;38.27;;
50066;SDS011;35952;52.524;13.340;2024-03-02T01:11:05;61.20;;;39.53;;
50066;SDS011;35952;52.524;13.340;2024-03-02T01:13:31;62.80;;;39.43;;
50066;SDS011;35952;52.524;13.340;2024-03-02T01:15:56;58.03;;;40.93;;
50066;SDS011;35952;52.524;13.340;2024-03-02T01:18:23;59.10;;;40.10;;
50066;SDS011;35952;52.524;13.340;2024-03-02T01:20:49;58.17;;;38.97;;
50066;SDS011;35952;52.524;13.340;2024-03-02T01:23:17;61.43;;;37.20;;
50066;SDS011;35952;52.524;13.340;2024-03-02T01:25:44;62.17;;;38.67;;
50066;SDS011;35952;52.524;13.340;2024-03-02T01:28:10;69.33;;;40.73;;
50066;SDS011;35952;52.524;13.340;2024-03-02T01:30:35;60.27;;;39.87;;
50066;SDS011;35952;52.524;13.340;2024-03-02T01:33:01;68.47;;;41.73;;
50066;SDS011;35952;52.524;13.340;2024-03-02T01:35:27;53.60;;;37.30;;
50066;SDS011;35952;52.524;13.340;2024-03-02T01:37:53;61.00;;;37.63;;
50066;SDS011;35952;52.524;13.340;2024-03-02T01:40:18;62.90;;;41.07;;
50066;SDS011;35952;52.524;13.340;2024-03-02T01:42:44;68.80;;;43.10;;
50066;SDS011;35952;52.524;13.340;2024-03-02T01:45:09;75.40;;;44.00;;
50066;SDS011;35952;52.524;13.340;2024-03-02T01:47:35;71.17;;;40.83;;
50066;SDS011;35952;52.524;13.340;2024-03-02T01:50:01;62.10;;;43.00;;
50066;SDS011;35952;52.524;13.340;2024-03-02T01:52:27;65.43;;;46.73;;
50066;SDS011;35952;52.524;13.340;2024-03-02T01:54:53;76.67;;;45.80;;
50066;SDS011;35952;52.524;13.340;2024-03-02T01:57:18;67.97;;;44.40;;
50066;SDS011;35952;52.524;13.340;2024-03-02T01:59:45;62.53;;;41.93;;
50066;SDS011;35952;52.524;13.340;2024-03-02T02:02:12;70.83;;;44.40;;
50066;SDS011;35952;52.524;13.340;2024-03-02T02:04:38;62.37;;;43.40;;
50066;SDS011;35952;52.524;13.340;2024-03-02T02:07:04;84.03;;;47.33;;
50066;SDS011;35952;52.524;13.340;2024-03-02T02:09:31;76.70;;;49.43;;
50066;SDS011;35952;52.524;13.340;2024-03-02T02:11:57;71.97;;;47.00;;
50066;SDS011;35952;52.524;13.340;2024-03-02T02:14:22;64.40;;;45.30;;
50066;SDS011;35952;52.524;13.340;2024-03-02T02:16:48;82.10;;;50.70;;
50066;SDS011;35952;52.524;13.340;2024-03-02T02:19:14;83.20;;;51.17;;
50066;SDS011;35952;52.524;13.340;2024-03-02T02:21:42;76.50;;;50.33;;
50066;SDS011;35952;52.524;13.340;2024-03-02T02:24:08;76.63;;;50.03;;
50066;SDS011;35952;52.524;13.340;2024-03-02T02:26:33;81.60;;;50.27;;
50066;SDS011;35952;52.524;13.340;2024-03-02T02:28:59;89.70;;;49.57;;
50066;SDS011;35952;52.524;13.340;2024-03-02T02:31:24;85.87;;;49.70;;
50066;SDS011;35952;52.524;13.340;2024-03-02T02:33:50;85.47;;;53.50;;
50066;SDS011;35952;52.524;13.340;2024-03-02T02:36:15;84.93;;;51.60;;
50066;SDS011;35952;52.524;13.340;2024-03-02T02:38:42;82.53;;;51.73;;
50066;SDS011;35952;52.524;13.340;2024-03-02T02:41:12;86.43;;;55.13;;
50066;SDS011;35952;52.524;13.340;2024-03-02T02:43:38;79.63;;;53.20;;
50066;SDS011;35952;52.524;13.340;2024-03-02T02:46:04;85.87;;;52.60;;
50066;SDS011;35952;52.524;13.340;2024-03-02T02:48:30;82.30;;;50.40;;
50066;SDS011;35952;52.524;13.340;2024-03-02T02:50:55;82.73;;;53.27;;
50066;SDS011;35952;52.524;13.340;2024-03-02T02:53:21;87.00;;;51.37;;
50066;SDS011;35952;52.524;13.340;2024-03-02T02:55:46;74.23;;;50.63;;
50066;SDS011;35952;52.524;13.340;2024-03-02T02:58:12;80.40;;;52.07;;
50066;SDS011;35952;52.524;13.340;2024-03-02T03:00:37;74.70;;;51.50;;
50066;SDS011;35952;52.524;13.340;2024-03-02T03:03:03;73.00;;;51.20;;
50066;SDS011;35952;52.524;13.340;2024-03-02T03:05:29;79.27;;;50.57;;
50066;SDS011;35952;52.524;13.340;2024-03-02T03:07:54;76.67;;;51.50;;
50066;SDS011;35952;52.524;13.340;2024-03-02T03:10:20;72.20;;;49.70;;
50066;SDS011;35952;52.524;13.340;2024-03-02T03:12:48;74.17;;;47.07;;
50066;SDS011;35952;52.524;13.340;2024-03-02T03:15:14;80.60;;;50.27;;
50066;SDS011;35952;52.524;13.340;2024-03-02T03:17:41;76.47;;;46.43;;
50066;SDS011;35952;52.524;13.340;2024-03-02T03:20:07;74.50;;;47.03;;
50066;SDS011;35952;52.524;13.340;2024-03-02T03:22:36;73.70;;;47.57;;
50066;SDS011;35952;52.524;13.340;2024-03-02T03:25:02;80.73;;;50.40;;
50066;SDS011;35952;52.524;13.340;2024-03-02T03:27:28;84.33;;;51.03;;
50066;SDS011;35952;52.524;13.340;2024-03-02T03:29:54;78.10;;;50.10;;
50066;SDS011;35952;52.524;13.340;2024-03-02T03:32:19;75.63;;;49.60;;
50066;SDS011;35952;52.524;13.340;2024-03-02T03:34:45;74.30;;;49.53;;
50066;SDS011;35952;52.524;13.340;2024-03-02T03:37:10;73.43;;;49.10;;
50066;SDS011;35952;52.524;13.340;2024-03-02T03:39:36;84.37;;;48.17;;
50066;SDS011;35952;52.524;13.340;2024-03-02T03:42:02;75.67;;;48.83;;
50066;SDS011;35952;52.524;13.340;2024-03-02T03:44:28;73.93;;;46.23;;
50066;SDS011;35952;52.524;13.340;2024-03-02T03:46:53;75.43;;;47.10;;
50066;SDS011;35952;52.524;13.340;2024-03-02T03:49:19;73.93;;;46.10;;
50066;SDS011;35952;52.524;13.340;2024-03-02T03:51:44;71.70;;;46.63;;
50066;SDS011;35952;52.524;13.340;2024-03-02T03:54:10;75.33;;;45.83;;
50066;SDS011;35952;52.524;13.340;2024-03-02T03:56:36;67.13;;;46.20;;
50066;SDS011;35952;52.524;13.340;2024-03-02T03:59:01;68.37;;;44.73;;
50066;SDS011;35952;52.524;13.340;2024-03-02T04:01:27;65.57;;;46.17;;
50066;SDS011;35952;52.524;13.340;2024-03-02T04:03:52;69.73;;;46.90;;
50066;SDS011;35952;52.524;13.340;2024-03-02T04:06:18;73.10;;;46.60;;
50066;SDS011;35952;52.524;13.340;2024-03-02T04:08:43;73.17;;;47.63;;
50066;SDS011;35952;52.524;13.340;2024-03-02T04:11:09;67.47;;;45.80;;
50066;SDS011;35952;52.524;13.340;2024-03-02T04:13:35;76.33;;;45.73;;
50066;SDS011;35952;52.524;13.340;2024-03-02T04:16:00;68.00;;;43.93;;
50066;SDS011;35952;52.524;13.340;2024-03-02T04:18:26;67.27;;;44.40;;
50066;SDS011;35952;52.524;13.340;2024-03-02T04:20:51;71.90;;;45.43;;
50066;SDS011;35952;52.524;13.340;2024-03-02T04:23:17;68.27;;;47.43;;
50066;SDS011;35952;52.524;13.340;2024-03-02T04:25:42;64.10;;;42.77;;
50066;SDS011;35952;52.524;13.340;2024-03-02T04:28:08;63.67;;;42.57;;
50066;SDS011;35952;52.524;13.340;2024-03-02T04:30:33;66.53;;;44.80;;
50066;SDS011;35952;52.524;13.340;2024-03-02T04:32:59;63.40;;;43.10;;
50066;SDS011;35952;52.524;13.340;2024-03-02T04:35:24;59.93;;;42.67;;
50066;SDS011;35952;52.524;13.340;2024-03-02T04:37:50;60.33;;;43.00;;
50066;SDS011;35952;52.524;13.340;2024-03-02T04:40:16;60.87;;;42.13;;
50066;SDS011;35952;52.524;13.340;2024-03-02T04:42:41;60.67;;;39.97;;
50066;SDS011;35952;52.524;13.340;2024-03-02T04:45:08;63.73;;;42.03;;
50066;SDS011;35952;52.524;13.340;2024-03-02T04:47:33;58.97;;;40.60;;
50066;SDS011;35952;52.524;13.340;2024-03-02T04:49:59;57.03;;;40.20;;
50066;SDS011;35952;52.524;13.340;2024-03-02T04:52:24;61.30;;;40.77;;
50066;SDS011;35952;52.524;13.340;2024-03-02T04:54:50;53.60;;;40.30;;
50066;SDS011;35952;52.524;13.340;2024-03-02T04:57:34;54.43;;;39.17;;
50066;SDS011;35952;52.524;13.340;2024-03-02T04:59:59;61.13;;;39.70;;
50066;SDS011;35952;52.524;13.340;2024-03-02T05:02:25;58.93;;;40.87;;
50066;SDS011;35952;52.524;13.340;2024-03-02T05:04:50;62.73;;;40.93;;
50066;SDS011;35952;52.524;13.340;2024-03-02T05:07:16;54.37;;;39.90;;
50066;SDS011;35952;52.524;13.340;2024-03-02T05:09:41;56.50;;;39.60;;
50066;SDS011;35952;52.524;13.340;2024-03-02T05:12:07;50.00;;;39.30;;
50066;SDS011;35952;52.524;13.340;2024-03-02T05:14:47;61.10;;;42.07;;
50066;SDS011;35952;52.524;13.340;2024-03-02T05:17:13;55.07;;;39.20;;
50066;SDS011;35952;52.524;13.340;2024-03-02T05:19:38;66.00;;;41.37;;
50066;SDS011;35952;52.524;13.340;2024-03-02T05:22:04;57.00;;;40.80;;
50066;SDS011;35952;52.524;13.340;2024-03-02T05:24:30;69.13;;;43.43;;
50066;SDS011;35952;52.524;13.340;2024-03-02T05:26:56;61.90;;;41.93;;
50066;SDS011;35952;52.524;13.340;2024-03-02T05:29:21;59.00;;;40.33;;
50066;SDS011;35952;52.524;13.340;2024-03-02T05:31:47;65.73;;;42.87;;
50066;SDS011;35952;52.524;13.340;2024-03-02T05:34:13;71.40;;;43.47;;
50066;SDS011;35952;52.524;13.340;2024-03-02T05:36:38;60.37;;;41.40;;
50066;SDS011;35952;52.524;13.340;2024-03-02T05:39:04;67.27;;;41.60;;
50066;SDS011;35952;52.524;13.340;2024-03-02T05:41:33;61.30;;;42.47;;
50066;SDS011;35952;52.524;13.340;2024-03-02T05:43:59;65.23;;;42.90;;
50066;SDS011;35952;52.524;13.340;2024-03-02T05:46:25;73.20;;;44.90;;
50066;SDS011;35952;52.524;13.340;2024-03-02T05:48:50;72.67;;;48.33;;
50066;SDS011;35952;52.524;13.340;2024-03-02T05:51:16;73.77;;;46.53;;
50066;SDS011;35952;52.524;13.340;2024-03-02T05:53:41;68.47;;;43.07;;
50066;SDS011;35952;52.524;13.340;2024-03-02T05:56:07;71.73;;;44.20;;
50066;SDS011;35952;52.524;13.340;2024-03-02T05:58:32;63.70;;;43.03;;
50066;SDS011;35952;52.524;13.340;2024-03-02T06:01:04;69.90;;;47.37;;
50066;SDS011;35952;52.524;13.340;2024-03-02T06:03:30;69.40;;;45.20;;
50066;SDS011;35952;52.524;13.340;2024-03-02T06:05:56;74.50;;;48.63;;
50066;SDS011;35952;52.524;13.340;2024-03-02T06:08:21;69.67;;;45.57;;
50066;SDS011;35952;52.524;13.340;2024-03-02T06:10:47;67.93;;;45.83;;
50066;SDS011;35952;52.524;13.340;2024-03-02T06:13:12;69.73;;;45.50;;
50066;SDS011;35952;52.524;13.340;2024-03-02T06:15:38;75.93;;;45.30;;
50066;SDS011;35952;52.524;13.340;2024-03-02T06:18:04;71.73;;;46.90;;
50066;SDS011;35952;52.524;13.340;2024-03-02T06:20:31;79.77;;;47.70;;
50066;SDS011;35952;52.524;13.340;2024-03-02T06:22:57;72.40;;;45.23;;
50066;SDS011;35952;52.524;13.340;2024-03-02T06:25:22;69.00;;;46.17;;
50066;SDS011;35952;52.524;13.340;2024-03-02T06:27:48;72.73;;;43.10;;
50066;SDS011;35952;52.524;13.340;2024-03-02T06:30:13;70.07;;;43.00;;
50066;SDS011;35952;52.524;13.340;2024-03-02T06:32:39;67.00;;;42.47;;
50066;SDS011;35952;52.524;13.340;2024-03-02T06:35:05;59.83;;;40.57;;
50066;SDS011;35952;52.524;13.340;2024-03-02T06:37:32;62.93;;;42.67;;
50066;SDS011;35952;52.524;13.340;2024-03-02T06:39:57;66.37;;;44.20;;
50066;SDS011;35952;52.524;13.340;2024-03-02T06:42:23;69.13;;;44.40;;
50066;SDS011;35952;52.524;13.340;2024-03-02T06:44:49;71.80;;;43.70;;
50066;SDS011;35952;52.524;13.340;2024-03-02T06:47:15;65.33;;;42.50;;
50066;SDS011;35952;52.524;13.340;2024-03-02T06:49:41;69.23;;;45.33;;
50066;SDS011;35952;52.524;13.340;2024-03-02T06:52:07;72.80;;;45.27;;
50066;SDS011;35952;52.524;13.340;2024-03-02T06:54:32;69.60;;;43.10;;
50066;SDS011;35952;52.524;13.340;2024-03-02T06:56:59;70.70;;;44.83;;
50066;SDS011;35952;52.524;13.340;2024-03-02T06:59:25;69.93;;;45.13;;
50066;SDS011;35952;52.524;13.340;2024-03-02T07:01:50;77.97;;;45.60;;
50066;SDS011;35952;52.524;13.340;2024-03-02T07:04:16;70.80;;;45.40;;
50066;SDS011;35952;52.524;13.340;2024-03-02T07:06:41;62.63;;;43.10;;
50066;SDS011;35952;52.524;13.340;2024-03-02T07:09:07;69.53;;;46.07;;
50066;SDS011;35952;52.524;13.340;2024-03-02T07:11:35;71.00;;;43.37;;
50066;SDS011;35952;52.524;13.340;2024-03-02T07:14:01;70.70;;;45.23;;
50066;SDS011;35952;52.524;13.340;2024-03-02T07:16:27;74.67;;;44.90;;
50066;SDS011;35952;52.524;13.340;2024-03-02T07:18:58;67.50;;;45.73;;
50066;SDS011;35952;52.524;13.340;2024-03-02T07:21:24;66.97;;;46.00;;
50066;SDS011;35952;52.524;13.340;2024-03-02T07:23:49;73.17;;;45.77;;
50066;SDS011;35952;52.524;13.340;2024-03-02T07:26:15;66.73;;;45.10;;
50066;SDS011;35952;52.524;13.340;2024-03-02T07:28:43;70.17;;;44.50;;
50066;SDS011;35952;52.524;13.340;2024-03-02T07:31:09;71.57;;;45.23;;
50066;SDS011;35952;52.524;13.340;2024-03-02T07:33:34;67.20;;;44.37;;
50066;SDS011;35952;52.524;13.340;2024-03-02T07:36:00;66.27;;;46.40;;
50066;SDS011;35952;52.524;13.340;2024-03-02T07:38:27;76.50;;;45.87;;
50066;SDS011;35952;52.524;13.340;2024-03-02T07:40:53;71.90;;;45.30;;
50066;SDS011;35952;52.524;13.340;2024-03-02T07:43:20;71.37;;;45.70;;
50066;SDS011;35952;52.524;13.340;2024-03-02T07:45:46;65.77;;;43.87;;
50066;SDS011;35952;52.524;13.340;2024-03-02T07:48:12;70.00;;;44.40;;
50066;SDS011;35952;52.524;13.340;2024-03-02T07:50:38;76.50;;;47.07;;
50066;SDS011;35952;52.524;13.340;2024-03-02T07:53:04;69.53;;;45.23;;
50066;SDS011;35952;52.524;13.340;2024-03-02T07:55:30;65.70;;;44.57;;
50066;SDS011;35952;52.524;13.340;2024-03-02T07:57:56;76.40;;;47.23;;
50066;SDS011;35952;52.524;13.340;2024-03-02T08:00:22;73.50;;;44.30;;
50066;SDS011;35952;52.524;13.340;2024-03-02T08:02:49;65.93;;;46.20;;
50066;SDS011;35952;52.524;13.340;2024-03-02T08:05:15;74.20;;;43.87;;
50066;SDS011;35952;52.524;13.340;2024-03-02T08:07:41;69.50;;;45.47;;
50066;SDS011;35952;52.524;13.340;2024-03-02T08:10:09;67.70;;;41.70;;
50066;SDS011;35952;52.524;13.340;2024-03-02T08:12:35;66.37;;;40.87;;
50066;SDS011;35952;52.524;13.340;2024-03-02T08:15:00;67.57;;;44.30;;
50066;SDS011;35952;52.524;13.340;2024-03-02T08:17:26;69.70;;;42.10;;
50066;SDS011;35952;52.524;13.340;2024-03-02T08:19:51;65.17;;;41.90;;
50066;SDS011;35952;52.524;13.340;2024-03-02T08:22:18;66.00;;;42.37;;
50066;SDS011;35952;52.524;13.340;2024-03-02T08:24:44;67.10;;;43.17;;
50066;SDS011;35952;52.524;13.340;2024-03-02T08:27:09;61.53;;;43.03;;
50066;SDS011;35952;52.524;13.340;2024-03-02T08:29:35;70.40;;;42.80;;
50066;SDS011;35952;52.524;13.340;2024-03-02T08:32:01;62.00;;;39.27;;
50066;SDS011;35952;52.524;13.340;2024-03-02T08:34:26;68.73;;;43.30;;
50066;SDS011;35952;52.524;13.340;2024-03-02T08:36:52;64.90;;;43.00;;
50066;SDS011;35952;52.524;13.340;2024-03-02T08:39:17;60.60;;;40.70;;
50066;SDS011;35952;52.524;13.340;2024-03-02T08:41:44;62.57;;;38.97;;
50066;SDS011;35952;52.524;13.340;2024-03-02T08:44:10;66.57;;;41.20;;
50066;SDS011;35952;52.524;13.340;2024-03-02T08:46:37;73.17;;;44.50;;
50066;SDS011;35952;52.524;13.340;2024-03-02T08:49:03;64.23;;;42.73;;
50066;SDS011;35952;52.524;13.340;2024-03-02T08:51:29;65.00;;;43.00;;
50066;SDS011;35952;52.524;13.340;2024-03-02T08:53:54;65.77;;;43.50;;
50066;SDS011;35952;52.524;13.340;2024-03-02T08:56:20;62.07;;;41.20;;
50066;SDS011;35952;52.524;13.340;2024-03-02T08:58:46;61.70;;;42.40;;
50066;SDS011;35952;52.524;13.340;2024-03-02T09:01:12;66.43;;;42.00;;
50066;SDS011;35952;52.524;13.340;2024-03-02T09:03:37;64.37;;;41.60;;
50066;SDS011;35952;52.524;13.340;2024-03-02T09:06:03;65.73;;;43.03;;
50066;SDS011;35952;52.524;13.340;2024-03-02T09:08:29;65.40;;;38.97;;
50066;SDS011;35952;52.524;13.340;2024-03-02T09:10:54;62.20;;;41.37;;
50066;SDS011;35952;52.524;13.340;2024-03-02T09:13:21;65.57;;;41.80;;
50066;SDS011;35952;52.524;13.340;2024-03-02T09:15:48;65.53;;;39.33;;
50066;SDS011;35952;52.524;13.340;2024-03-02T09:18:14;62.80;;;42.47;;
50066;SDS011;35952;52.524;13.340;2024-03-02T09:20:39;61.73;;;38.40;;
50066;SDS011;35952;52.524;13.340;2024-03-02T09:23:05;62.97;;;40.17;;
50066;SDS011;35952;52.524;13.340;2024-03-02T09:25:30;58.83;;;40.27;;
50066;SDS011;35952;52.524;13.340;2024-03-02T09:27:56;62.20;;;38.93;;
50066;SDS011;35952;52.524;13.340;2024-03-02T09:30:21;56.40;;;38.70;;
50066;SDS011;35952;52.524;13.340;2024-03-02T09:32:47;55.50;;;38.67;;
50066;SDS011;35952;52.524;13.340;2024-03-02T09:35:12;62.60;;;41.03;;
50066;SDS011;35952;52.524;13.340;2024-03-02T09:37:38;57.30;;;39.20;;
50066;SDS011;35952;52.524;13.340;2024-03-02T09:40:03;58.70;;;40.03;;
50066;SDS011;35952;52.524;13.340;2024-03-02T09:42:31;55.53;;;38.13;;
50066;SDS011;35952;52.524;13.340;2024-03-02T09:44:57;56.83;;;38.77;;
50066;SDS011;35952;52.524;13.340;2024-03-02T09:47:22;63.57;;;41.47;;
50066;SDS011;35952;52.524;13.340;2024-03-02T09:49:48;63.03;;;40.40;;
50066;SDS011;35952;52.524;13.340;2024-03-02T09:52:14;51.30;;;37.73;;
50066;SDS011;35952;52.524;13.340;2024-03-02T09:54:41;54.07;;;36.93;;
50066;SDS011;35952;52.524;13.340;2024-03-02T09:57:07;50.03;;;36.60;;
50066;SDS011;35952;52.524;13.340;2024-03-02T09:59:34;52.53;;;35.70;;
50066;SDS011;35952;52.524;13.340;2024-03-02T10:02:00;48.10;;;34.83;;
50066;SDS011;35952;52.524;13.340;2024-03-02T10:04:27;57.67;;;37.03;;
50066;SDS011;35952;52.524;13.340;2024-03-02T10:07:12;50.73;;;35.60;;
50066;SDS011;35952;52.524;13.340;2024-03-02T10:09:40;48.70;;;34.57;;
50066;SDS011;35952;52.524;13.340;2024-03-02T10:12:09;53.33;;;34.17;;
50066;SDS011;35952;52.524;13.340;2024-03-02T10:14:39;44.43;;;32.10;;
50066;SDS011;35952;52.524;13.340;2024-03-02T10:17:06;52.33;;;34.47;;
50066;SDS011;35952;52.524;13.340;2024-03-02T10:19:33;57.13;;;34.07;;
50066;SDS011;35952;52.524;13.340;2024-03-02T10:22:00;48.43;;;33.20;;
50066;SDS011;35952;52.524;13.340;2024-03-02T10:24:27;42.97;;;30.73;;
50066;SDS011;35952;52.524;13.340;2024-03-02T10:26:59;47.33;;;33.37;;
50066;SDS011;35952;52.524;13.340;2024-03-02T10:29:24;55.00;;;33.90;;
50066;SDS011;35952;52.524;13.340;2024-03-02T10:31:53;47.57;;;31.67;;
50066;SDS011;35952;52.524;13.340;2024-03-02T10:34:19;44.57;;;31.37;;
50066;SDS011;35952;52.524;13.340;2024-03-02T10:36:47;45.57;;;31.93;;
50066;SDS011;35952;52.524;13.340;2024-03-02T10:39:13;49.07;;;33.70;;
50066;SDS011;35952;52.524;13.340;2024-03-02T10:41:40;48.57;;;32.70;;
50066;SDS011;35952;52.524;13.340;2024-03-02T10:44:06;45.10;;;29.77;;
50066;SDS011;35952;52.524;13.340;2024-03-02T10:46:35;41.57;;;30.27;;
50066;SDS011;35952;52.524;13.340;2024-03-02T10:49:03;42.03;;;29.90;;
50066;SDS011;35952;52.524;13.340;2024-03-02T10:51:31;40.37;;;31.17;;
50066;SDS011;35952;52.524;13.340;2024-03-02T10:54:00;41.80;;;28.60;;
50066;SDS011;35952;52.524;13.340;2024-03-02T10:59:01;38.67;;;30.07;;
50066;SDS011;35952;52.524;13.340;2024-03-02T11:01:42;40.10;;;30.13;;
50066;SDS011;35952;52.524;13.340;2024-03-02T11:04:10;40.30;;;27.03;;
50066;SDS011;35952;52.524;13.340;2024-03-02T11:06:40;36.47;;;27.00;;
50066;SDS011;35952;52.524;13.340;2024-03-02T11:09:13;36.47;;;26.37;;
50066;SDS011;35952;52.524;13.340;2024-03-02T11:11:43;38.90;;;27.00;;
50066;SDS011;35952;52.524;13.340;2024-03-02T11:14:12;35.70;;;27.57;;
50066;SDS011;35952;52.524;13.340;2024-03-02T11:16:41;37.90;;;27.07;;
50066;SDS011;35952;52.524;13.340;2024-03-02T11:19:11;32.60;;;24.90;;
50066;SDS011;35952;52.524;13.340;2024-03-02T11:21:38;34.40;;;25.70;;
50066;SDS011;35952;52.524;13.340;2024-03-02T11:24:28;40.57;;;27.73;;
50066;SDS011;35952;52.524;13.340;2024-03-02T11:26:57;35.50;;;25.17;;
50066;SDS011;35952;52.524;13.340;2024-03-02T11:32:03;37.70;;;26.80;;
50066;SDS011;35952;52.524;13.340;2024-03-02T11:34:31;37.10;;;26.93;;
50066;SDS011;35952;52.524;13.340;2024-03-02T11:37:04;34.23;;;27.13;;
50066;SDS011;35952;52.524;13.340;2024-03-02T11:39:35;35.37;;;26.10;;
50066;SDS011;35952;52.524;13.340;2024-03-02T11:42:04;34.93;;;24.67;;
50066;SDS011;35952;52.524;13.340;2024-03-02T11:45:06;31.07;;;24.13;;
50066;SDS011;35952;52.524;13.340;2024-03-02T11:47:34;39.50;;;27.50;;
50066;SDS011;35952;52.524;13.340;2024-03-02T11:50:00;36.50;;;24.97;;
50066;SDS011;35952;52.524;13.340;2024-03-02T11:52:29;35.50;;;25.80;;
50066;SDS011;35952;52.524;13.340;2024-03-02T11:54:55;34.70;;;25.97;;
50066;SDS011;35952;52.524;13.340;2024-03-02T11:57:22;31.90;;;24.10;;
50066;SDS011;35952;52.524;13.340;2024-03-02T11:59:48;29.53;;;23.40;;
50066;SDS011;35952;52.524;13.340;2024-03-02T12:02:18;32.13;;;24.70;;
50066;SDS011;35952;52.524;13.340;2024-03-02T12:04:47;31.80;;;24.77;;
50066;SDS011;35952;52.524;13.340;2024-03-02T12:07:20;34.03;;;25.77;;
50066;SDS011;35952;52.524;13.340;2024-03-02T12:10:01;32.77;;;25.17;;
50066;SDS011;35952;52.524;13.340;2024-03-02T12:12:27;38.90;;;26.43;;
50066;SDS011;35952;52.524;13.340;2024-03-02T12:14:53;30.17;;;24.07;;
50066;SDS011;35952;52.524;13.340;2024-03-02T12:17:27;33.37;;;24.93;;
50066;SDS011;35952;52.524;13.340;2024-03-02T12:19:54;32.93;;;24.43;;
50066;SDS011;35952;52.524;13.340;2024-03-02T12:22:24;37.30;;;26.07;;
50066;SDS011;35952;52.524;13.340;2024-03-02T12:24:59;30.23;;;23.10;;
50066;SDS011;35952;52.524;13.340;2024-03-02T12:27:26;30.27;;;24.37;;
50066;SDS011;35952;52.524;13.340;2024-03-02T12:29:58;31.73;;;23.40;;
50066;SDS011;35952;52.524;13.340;2024-03-02T12:32:24;29.80;;;26.03;;
50066;SDS011;35952;52.524;13.340;2024-03-02T12:34:50;34.00;;;24.50;;
50066;SDS011;35952;52.524;13.340;2024-03-02T12:37:16;33.47;;;26.20;;
50066;SDS011;35952;52.524;13.340;2024-03-02T12:39:45;32.13;;;24.53;;
50066;SDS011;35952;52.524;13.340;2024-03-02T12:42:13;35.90;;;24.77;;
50066;SDS011;35952;52.524;13.340;2024-03-02T12:44:41;30.77;;;24.00;;
50066;SDS011;35952;52.524;13.340;2024-03-02T12:47:10;34.40;;;24.00;;
50066;SDS011;35952;52.524;13.340;2024-03-02T12:49:38;34.00;;;25.83;;
50066;SDS011;35952;52.524;13.340;2024-03-02T12:52:05;39.40;;;29.03;;
50066;SDS011;35952;52.524;13.340;2024-03-02T12:54:41;39.17;;;26.80;;
50066;SDS011;35952;52.524;13.340;2024-03-02T12:57:07;36.43;;;25.43;;
50066;SDS011;35952;52.524;13.340;2024-03-02T12:59:33;35.33;;;27.23;;
50066;SDS011;35952;52.524;13.340;2024-03-02T13:02:02;40.23;;;27.67;;
50066;SDS011;35952;52.524;13.340;2024-03-02T13:04:28;36.77;;;29.03;;
50066;SDS011;35952;52.524;13.340;2024-03-02T13:06:55;34.37;;;27.20;;
50066;SDS011;35952;52.524;13.340;2024-03-02T13:09:27;31.80;;;23.80;;
50066;SDS011;35952;52.524;13.340;2024-03-02T13:15:15;36.13;;;26.23;;
50066;SDS011;35952;52.524;13.340;2024-03-02T13:18:17;35.43;;;25.40;;
50066;SDS011;35952;52.524;13.340;2024-03-02T13:20:59;44.17;;;25.80;;
50066;SDS011;35952;52.524;13.340;2024-03-02T13:23:39;35.57;;;24.80;;
50066;SDS011;35952;52.524;13.340;2024-03-02T13:26:11;32.27;;;24.97;;
50066;SDS011;35952;52.524;13.340;2024-03-02T13:28:38;32.43;;;25.37;;
50066;SDS011;35952;52.524;13.340;2024-03-02T13:31:15;33.77;;;26.00;;
50066;SDS011;35952;52.524;13.340;2024-03-02T13:33:46;33.50;;;24.10;;
50066;SDS011;35952;52.524;13.340;2024-03-02T13:36:15;29.50;;;23.00;;
50066;SDS011;35952;52.524;13.340;2024-03-02T13:38:41;31.60;;;24.33;;
50066;SDS011;35952;52.524;13.340;2024-03-02T13:41:12;28.50;;;22.00;;
50066;SDS011;35952;52.524;13.340;2024-03-02T13:43:41;33.67;;;23.30;;
50066;SDS011;35952;52.524;13.340;2024-03-02T13:46:15;28.80;;;22.40;;
50066;SDS011;35952;52.524;13.340;2024-03-02T13:48:47;27.27;;;22.90;;
50066;SDS011;35952;52.524;13.340;2024-03-02T13:51:12;28.27;;;21.70;;
50066;SDS011;35952;52.524;13.340;2024-03-02T13:53:51;29.30;;;21.30;;
50066;SDS011;35952;52.524;13.340;2024-03-02T13:56:19;25.53;;;22.03;;
50066;SDS011;35952;52.524;13.340;2024-03-02T13:58:47;24.30;;;19.20;;
50066;SDS011;35952;52.524;13.340;2024-03-02T14:01:15;25.33;;;20.50;;
50066;SDS011;35952;52.524;13.340;2024-03-02T14:03:50;26.93;;;19.93;;
50066;SDS011;35952;52.524;13.340;2024-03-02T14:06:19;23.83;;;17.80;;
50066;SDS011;35952;52.524;13.340;2024-03-02T14:08:45;27.67;;;19.60;;
50066;SDS011;35952;52.524;13.340;2024-03-02T14:11:13;23.90;;;18.20;;
50066;SDS011;35952;52.524;13.340;2024-03-02T14:13:40;24.43;;;19.87;;
50066;SDS011;35952;52.524;13.340;2024-03-02T14:16:11;22.27;;;17.27;;
50066;SDS011;35952;52.524;13.340;2024-03-02T14:18:41;22.43;;;16.63;;
50066;SDS011;35952;52.524;13.340;2024-03-02T14:21:07;31.90;;;23.50;;